Rockport, TX (78381)

8:24 PM CDT on April 27, 2017 (GMT -0500)
Harbor Oaks | | Change Station

Elev 10 ft 28.05 °N, 97.04 °W | Updated 1 minute ago

Overcast
Overcast
74.6 °F
Feels Like 74 °F
N
0.0
Wind Variable Wind from SSE

Today
High -- | Low -- °F
--% Chance of Precip.
Yesterday
High -- | Low -- °F
Precip. -- in
Pressure 29.65 in
Visibility 10.0 miles
Clouds Overcast 1400 ft
Heat Index 74 °F
Dew Point 70 °F
Humidity 86%
Rainfall 0.00 in
Snow Depth Not available.
6:51 AM 8:00 PM
Waxing Crescent, 4% visible
SPECI KRKP 280102Z AUTO 14013KT 10SM OVC014 24/20 A2965 RMK AO2 T02390200
Pressure 29.65 in
Visibility 10.0 miles
Clouds Overcast 1400 ft
Heat Index 74 °F
Dew Point 70 °F
Humidity 86%
Rainfall 0.00 in
Snow Depth Not available.
6:51 AM 8:00 PM
Waxing Crescent, 4% visible
SPECI KRKP 280102Z AUTO 14013KT 10SM OVC014 24/20 A2965 RMK AO2 T02390200

Get Severe Weather Alerts

Thanks for signing up!

Be on the lookout for a verification email in your inbox.

You'll start receiving the daily forecast at 8 AM.

×

10-Day Weather Forecast

Almanac

Astronomy

Apr. 27, 2017 Rise Set
Actual Time
Civil Twilight
Nautical Twilight
Astronomical Twilight
Moon
Length of Visible Light
Length of Day
Tomorrow will be .
, % of the Moon is Illuminated

Today's Extremes

State Highs State Lows

Community

WunderPhotos

WunderBlog® & News

Nearby

Air Quality

  Air Quality AQ Index Pollutant
Not available.

Snow Depth

Station Depth Elevation

Earthquake Activity

City Distance Mag. Time & Date
Minimum magnitude displayed is 2.5.

Coastal Water Temperatures

Place Temperature

Stations

Nearby Weather Stations

Station Location Temp. Windchill Dew Point Humidity Wind Precip. Elev Updated Type
                   

Watches & Warnings

There are currently no watches in effect.